sensor_id;sensor_type;location;lat;lon;timestamp;temperature;humidity
43043;DHT22;28667;50.758;6.096;2023-10-09T00:00:08;16.40;99.90
43043;DHT22;28667;50.758;6.096;2023-10-09T00:03:01;16.40;99.90
43043;DHT22;28667;50.758;6.096;2023-10-09T00:05:27;16.40;99.90
43043;DHT22;28667;50.758;6.096;2023-10-09T00:08:15;16.40;99.90
43043;DHT22;28667;50.758;6.096;2023-10-09T00:11:00;16.40;99.90
43043;DHT22;28667;50.758;6.096;2023-10-09T00:13:47;16.40;99.90
43043;DHT22;28667;50.758;6.096;2023-10-09T00:16:21;16.40;99.90
43043;DHT22;28667;50.758;6.096;2023-10-09T00:19:04;16.40;99.90
43043;DHT22;28667;50.758;6.096;2023-10-09T00:21:46;16.30;99.90
43043;DHT22;28667;50.758;6.096;2023-10-09T00:24:13;16.30;99.90
43043;DHT22;28667;50.758;6.096;2023-10-09T00:26:46;16.30;99.90
43043;DHT22;28667;50.758;6.096;2023-10-09T00:29:15;16.30;99.90
43043;DHT22;28667;50.758;6.096;2023-10-09T00:31:53;16.20;99.90
43043;DHT22;28667;50.758;6.096;2023-10-09T00:34:38;16.20;99.90
43043;DHT22;28667;50.758;6.096;2023-10-09T00:37:11;16.20;99.90
43043;DHT22;28667;50.758;6.096;2023-10-09T00:39:45;16.20;99.90
43043;DHT22;28667;50.758;6.096;2023-10-09T00:42:14;16.10;99.90
43043;DHT22;28667;50.758;6.096;2023-10-09T00:44:47;16.10;99.90
43043;DHT22;28667;50.758;6.096;2023-10-09T00:47:15;16.10;99.90
43043;DHT22;28667;50.758;6.096;2023-10-09T00:50:04;16.10;99.90
43043;DHT22;28667;50.758;6.096;2023-10-09T00:52:57;16.10;99.90
43043;DHT22;28667;50.758;6.096;2023-10-09T00:55:36;16.10;99.90
43043;DHT22;28667;50.758;6.096;2023-10-09T00:58:14;16.10;99.90
43043;DHT22;28667;50.758;6.096;2023-10-09T01:00:43;16.00;99.90
43043;DHT22;28667;50.758;6.096;2023-10-09T01:03:14;16.10;99.90
43043;DHT22;28667;50.758;6.096;2023-10-09T01:08:35;16.00;99.90
43043;DHT22;28667;50.758;6.096;2023-10-09T01:11:14;16.00;99.90
43043;DHT22;28667;50.758;6.096;2023-10-09T01:13:55;16.00;99.90
43043;DHT22;28667;50.758;6.096;2023-10-09T01:16:38;16.00;99.90
43043;DHT22;28667;50.758;6.096;2023-10-09T01:19:04;16.10;99.90
43043;DHT22;28667;50.758;6.096;2023-10-09T01:21:39;16.10;99.90
43043;DHT22;28667;50.758;6.096;2023-10-09T01:24:08;16.10;99.90
43043;DHT22;28667;50.758;6.096;2023-10-09T01:26:41;16.10;99.90
43043;DHT22;28667;50.758;6.096;2023-10-09T01:31:53;16.10;99.90
43043;DHT22;28667;50.758;6.096;2023-10-09T01:34:29;16.10;99.90
43043;DHT22;28667;50.758;6.096;2023-10-09T01:37:12;16.10;99.90
43043;DHT22;28667;50.758;6.096;2023-10-09T01:39:45;16.20;99.90
43043;DHT22;28667;50.758;6.096;2023-10-09T01:42:13;16.10;99.90
43043;DHT22;28667;50.758;6.096;2023-10-09T01:44:49;16.20;99.90
43043;DHT22;28667;50.758;6.096;2023-10-09T01:47:14;16.20;99.90
43043;DHT22;28667;50.758;6.096;2023-10-09T01:49:43;16.20;99.90
43043;DHT22;28667;50.758;6.096;2023-10-09T01:52:12;16.20;99.90
43043;DHT22;28667;50.758;6.096;2023-10-09T01:54:42;16.20;99.90
43043;DHT22;28667;50.758;6.096;2023-10-09T01:57:13;16.20;99.90
43043;DHT22;28667;50.758;6.096;2023-10-09T01:59:39;16.20;99.90
43043;DHT22;28667;50.758;6.096;2023-10-09T02:02:13;16.20;99.90
43043;DHT22;28667;50.758;6.096;2023-10-09T02:05:00;16.20;99.90
43043;DHT22;28667;50.758;6.096;2023-10-09T02:07:50;16.20;99.90
43043;DHT22;28667;50.758;6.096;2023-10-09T02:10:20;16.20;99.90
43043;DHT22;28667;50.758;6.096;2023-10-09T02:13:06;16.20;99.90
43043;DHT22;28667;50.758;6.096;2023-10-09T02:15:33;16.20;99.90
43043;DHT22;28667;50.758;6.096;2023-10-09T02:18:10;16.20;99.90
43043;DHT22;28667;50.758;6.096;2023-10-09T02:20:44;16.20;99.90
43043;DHT22;28667;50.758;6.096;2023-10-09T02:23:12;16.20;99.90
43043;DHT22;28667;50.758;6.096;2023-10-09T02:25:40;16.20;99.90
43043;DHT22;28667;50.758;6.096;2023-10-09T02:28:10;16.20;99.90
43043;DHT22;28667;50.758;6.096;2023-10-09T02:30:58;16.10;99.90
43043;DHT22;28667;50.758;6.096;2023-10-09T02:33:26;16.10;99.90
43043;DHT22;28667;50.758;6.096;2023-10-09T02:35:56;16.10;99.90
43043;DHT22;28667;50.758;6.096;2023-10-09T02:38:25;16.10;99.90
43043;DHT22;28667;50.758;6.096;2023-10-09T02:40:52;16.10;99.90
43043;DHT22;28667;50.758;6.096;2023-10-09T02:43:44;16.10;99.90
43043;DHT22;28667;50.758;6.096;2023-10-09T02:46:11;16.10;99.90
43043;DHT22;28667;50.758;6.096;2023-10-09T02:48:44;16.10;99.90
43043;DHT22;28667;50.758;6.096;2023-10-09T02:51:23;16.10;99.90
43043;DHT22;28667;50.758;6.096;2023-10-09T02:53:59;16.10;99.90
43043;DHT22;28667;50.758;6.096;2023-10-09T02:56:32;16.00;99.90
43043;DHT22;28667;50.758;6.096;2023-10-09T02:59:08;16.00;99.90
43043;DHT22;28667;50.758;6.096;2023-10-09T03:01:35;16.00;99.90
43043;DHT22;28667;50.758;6.096;2023-10-09T03:04:06;16.00;99.90
43043;DHT22;28667;50.758;6.096;2023-10-09T03:06:36;16.00;99.90
43043;DHT22;28667;50.758;6.096;2023-10-09T03:09:10;16.00;99.90
43043;DHT22;28667;50.758;6.096;2023-10-09T03:11:51;16.00;99.90
43043;DHT22;28667;50.758;6.096;2023-10-09T03:14:22;15.90;99.90
43043;DHT22;28667;50.758;6.096;2023-10-09T03:16:58;15.90;99.90
43043;DHT22;28667;50.758;6.096;2023-10-09T03:19:29;16.00;99.90
43043;DHT22;28667;50.758;6.096;2023-10-09T03:21:56;16.00;99.90
43043;DHT22;28667;50.758;6.096;2023-10-09T03:24:25;16.00;99.90
43043;DHT22;28667;50.758;6.096;2023-10-09T03:26:55;16.00;99.90
43043;DHT22;28667;50.758;6.096;2023-10-09T03:29:22;16.00;99.90
43043;DHT22;28667;50.758;6.096;2023-10-09T03:31:48;15.90;99.90
43043;DHT22;28667;50.758;6.096;2023-10-09T03:34:16;15.90;99.90
43043;DHT22;28667;50.758;6.096;2023-10-09T03:36:42;15.90;99.90
43043;DHT22;28667;50.758;6.096;2023-10-09T03:39:12;15.90;99.90
43043;DHT22;28667;50.758;6.096;2023-10-09T03:41:58;15.90;99.90
43043;DHT22;28667;50.758;6.096;2023-10-09T03:44:25;15.90;99.90
43043;DHT22;28667;50.758;6.096;2023-10-09T03:46:57;15.90;99.90
43043;DHT22;28667;50.758;6.096;2023-10-09T03:49:22;15.90;99.90
43043;DHT22;28667;50.758;6.096;2023-10-09T03:51:51;15.90;99.90
43043;DHT22;28667;50.758;6.096;2023-10-09T03:54:20;15.90;99.90
43043;DHT22;28667;50.758;6.096;2023-10-09T03:56:46;15.90;99.90
43043;DHT22;28667;50.758;6.096;2023-10-09T03:59:19;15.90;99.90
43043;DHT22;28667;50.758;6.096;2023-10-09T04:01:46;15.90;99.90
43043;DHT22;28667;50.758;6.096;2023-10-09T04:04:16;15.90;99.90
43043;DHT22;28667;50.758;6.096;2023-10-09T04:06:42;15.90;99.90
43043;DHT22;28667;50.758;6.096;2023-10-09T04:09:14;15.90;99.90
43043;DHT22;28667;50.758;6.096;2023-10-09T04:11:40;15.80;99.90
43043;DHT22;28667;50.758;6.096;2023-10-09T04:14:09;15.80;99.90
43043;DHT22;28667;50.758;6.096;2023-10-09T04:16:39;15.80;99.90
43043;DHT22;28667;50.758;6.096;2023-10-09T04:19:16;15.80;99.90
43043;DHT22;28667;50.758;6.096;2023-10-09T04:21:48;15.80;99.90
43043;DHT22;28667;50.758;6.096;2023-10-09T04:24:14;15.80;99.90
43043;DHT22;28667;50.758;6.096;2023-10-09T04:26:41;15.70;99.90
43043;DHT22;28667;50.758;6.096;2023-10-09T04:29:11;15.70;99.90
43043;DHT22;28667;50.758;6.096;2023-10-09T04:31:47;15.70;99.90
43043;DHT22;28667;50.758;6.096;2023-10-09T04:34:23;15.70;99.90
43043;DHT22;28667;50.758;6.096;2023-10-09T04:36:52;15.70;99.90
43043;DHT22;28667;50.758;6.096;2023-10-09T04:39:27;15.70;99.90
43043;DHT22;28667;50.758;6.096;2023-10-09T04:41:57;15.70;99.90
43043;DHT22;28667;50.758;6.096;2023-10-09T04:44:41;15.70;99.90
43043;DHT22;28667;50.758;6.096;2023-10-09T04:47:36;15.70;99.90
43043;DHT22;28667;50.758;6.096;2023-10-09T04:50:11;15.70;99.90
43043;DHT22;28667;50.758;6.096;2023-10-09T04:52:37;15.70;99.90
43043;DHT22;28667;50.758;6.096;2023-10-09T04:55:03;15.70;99.90
43043;DHT22;28667;50.758;6.096;2023-10-09T04:57:42;15.70;99.90
43043;DHT22;28667;50.758;6.096;2023-10-09T05:03:01;15.70;99.90
43043;DHT22;28667;50.758;6.096;2023-10-09T05:05:38;15.70;99.90
43043;DHT22;28667;50.758;6.096;2023-10-09T05:08:11;15.70;99.90
43043;DHT22;28667;50.758;6.096;2023-10-09T05:10:55;15.70;99.90
43043;DHT22;28667;50.758;6.096;2023-10-09T05:13:41;15.70;99.90
43043;DHT22;28667;50.758;6.096;2023-10-09T05:16:12;15.70;99.90
43043;DHT22;28667;50.758;6.096;2023-10-09T05:18:45;15.70;99.90
43043;DHT22;28667;50.758;6.096;2023-10-09T05:21:25;15.70;99.90
43043;DHT22;28667;50.758;6.096;2023-10-09T05:24:01;15.70;99.90
43043;DHT22;28667;50.758;6.096;2023-10-09T05:26:50;15.70;99.90
43043;DHT22;28667;50.758;6.096;2023-10-09T05:29:16;15.80;99.90
43043;DHT22;28667;50.758;6.096;2023-10-09T05:31:50;15.70;99.90
43043;DHT22;28667;50.758;6.096;2023-10-09T05:34:28;15.70;99.90
43043;DHT22;28667;50.758;6.096;2023-10-09T05:37:06;15.70;99.90
43043;DHT22;28667;50.758;6.096;2023-10-09T05:39:54;15.70;99.90
43043;DHT22;28667;50.758;6.096;2023-10-09T05:45:08;15.70;99.90
43043;DHT22;28667;50.758;6.096;2023-10-09T05:47:47;15.70;99.90
43043;DHT22;28667;50.758;6.096;2023-10-09T05:50:23;15.70;99.90
43043;DHT22;28667;50.758;6.096;2023-10-09T05:52:53;15.70;99.90
43043;DHT22;28667;50.758;6.096;2023-10-09T05:57:48;15.70;99.90
43043;DHT22;28667;50.758;6.096;2023-10-09T06:00:32;15.70;99.90
43043;DHT22;28667;50.758;6.096;2023-10-09T06:03:17;15.70;99.90
43043;DHT22;28667;50.758;6.096;2023-10-09T06:05:46;15.80;99.90
43043;DHT22;28667;50.758;6.096;2023-10-09T06:08:28;15.70;99.90
43043;DHT22;28667;50.758;6.096;2023-10-09T06:11:07;15.70;99.90
43043;DHT22;28667;50.758;6.096;2023-10-09T06:13:51;15.70;99.90
43043;DHT22;28667;50.758;6.096;2023-10-09T06:16:29;15.70;99.90
43043;DHT22;28667;50.758;6.096;2023-10-09T06:19:16;15.70;99.90
43043;DHT22;28667;50.758;6.096;2023-10-09T06:21:47;15.70;99.90
43043;DHT22;28667;50.758;6.096;2023-10-09T06:24:19;15.70;99.90
43043;DHT22;28667;50.758;6.096;2023-10-09T06:26:46;15.70;99.90
43043;DHT22;28667;50.758;6.096;2023-10-09T06:29:28;15.80;99.90
43043;DHT22;28667;50.758;6.096;2023-10-09T06:32:20;15.80;99.90
43043;DHT22;28667;50.758;6.096;2023-10-09T06:34:59;15.90;99.90
43043;DHT22;28667;50.758;6.096;2023-10-09T06:37:46;15.90;99.90
43043;DHT22;28667;50.758;6.096;2023-10-09T06:40:32;15.90;99.90
43043;DHT22;28667;50.758;6.096;2023-10-09T06:43:04;16.00;99.90
43043;DHT22;28667;50.758;6.096;2023-10-09T06:45:35;16.10;99.90
43043;DHT22;28667;50.758;6.096;2023-10-09T06:48:14;16.10;99.90
43043;DHT22;28667;50.758;6.096;2023-10-09T06:51:05;16.10;99.90
43043;DHT22;28667;50.758;6.096;2023-10-09T06:53:53;16.20;99.90
43043;DHT22;28667;50.758;6.096;2023-10-09T06:59:09;16.30;99.90
43043;DHT22;28667;50.758;6.096;2023-10-09T07:01:47;16.30;99.90
43043;DHT22;28667;50.758;6.096;2023-10-09T07:04:37;16.30;99.90
43043;DHT22;28667;50.758;6.096;2023-10-09T07:07:03;16.40;99.90
43043;DHT22;28667;50.758;6.096;2023-10-09T07:09:35;16.40;99.90
43043;DHT22;28667;50.758;6.096;2023-10-09T07:12:32;16.40;99.90
43043;DHT22;28667;50.758;6.096;2023-10-09T07:15:01;16.40;99.90
43043;DHT22;28667;50.758;6.096;2023-10-09T07:17:47;16.40;99.90
43043;DHT22;28667;50.758;6.096;2023-10-09T07:20:17;16.40;99.90
43043;DHT22;28667;50.758;6.096;2023-10-09T07:23:03;16.40;99.90
43043;DHT22;28667;50.758;6.096;2023-10-09T07:25:42;16.40;99.90
43043;DHT22;28667;50.758;6.096;2023-10-09T07:28:10;16.40;99.90
43043;DHT22;28667;50.758;6.096;2023-10-09T07:30:56;16.40;99.90
43043;DHT22;28667;50.758;6.096;2023-10-09T07:33:23;16.40;99.90
43043;DHT22;28667;50.758;6.096;2023-10-09T07:35:56;16.40;99.90
43043;DHT22;28667;50.758;6.096;2023-10-09T07:38:25;16.40;99.90
43043;DHT22;28667;50.758;6.096;2023-10-09T07:40:54;16.50;99.90
43043;DHT22;28667;50.758;6.096;2023-10-09T07:43:33;16.50;99.90
43043;DHT22;28667;50.758;6.096;2023-10-09T07:46:18;16.60;99.90
43043;DHT22;28667;50.758;6.096;2023-10-09T07:49:02;16.70;99.90
43043;DHT22;28667;50.758;6.096;2023-10-09T07:51:38;16.70;99.90
43043;DHT22;28667;50.758;6.096;2023-10-09T07:54:04;16.70;99.90
43043;DHT22;28667;50.758;6.096;2023-10-09T07:56:40;16.80;99.90
43043;DHT22;28667;50.758;6.096;2023-10-09T07:59:14;16.90;99.90
43043;DHT22;28667;50.758;6.096;2023-10-09T08:01:52;16.90;99.90
43043;DHT22;28667;50.758;6.096;2023-10-09T08:04:22;16.90;99.90
43043;DHT22;28667;50.758;6.096;2023-10-09T08:07:11;16.90;99.90
43043;DHT22;28667;50.758;6.096;2023-10-09T08:09:51;17.00;99.90
43043;DHT22;28667;50.758;6.096;2023-10-09T08:12:36;17.00;99.90
43043;DHT22;28667;50.758;6.096;2023-10-09T08:15:24;17.00;99.90
43043;DHT22;28667;50.758;6.096;2023-10-09T08:18:16;17.00;99.90
43043;DHT22;28667;50.758;6.096;2023-10-09T08:20:54;17.10;99.90
43043;DHT22;28667;50.758;6.096;2023-10-09T08:23:24;17.20;99.90
43043;DHT22;28667;50.758;6.096;2023-10-09T08:26:05;17.30;99.90
43043;DHT22;28667;50.758;6.096;2023-10-09T08:28:44;17.40;99.90
43043;DHT22;28667;50.758;6.096;2023-10-09T08:31:15;17.50;99.90
43043;DHT22;28667;50.758;6.096;2023-10-09T08:34:00;17.60;99.90
43043;DHT22;28667;50.758;6.096;2023-10-09T08:36:27;17.60;99.90
43043;DHT22;28667;50.758;6.096;2023-10-09T08:39:02;17.70;99.90
43043;DHT22;28667;50.758;6.096;2023-10-09T08:41:42;17.70;99.90
43043;DHT22;28667;50.758;6.096;2023-10-09T08:44:11;17.70;99.90
43043;DHT22;28667;50.758;6.096;2023-10-09T08:46:38;17.80;99.90
43043;DHT22;28667;50.758;6.096;2023-10-09T08:49:05;17.80;99.90
43043;DHT22;28667;50.758;6.096;2023-10-09T08:51:33;17.80;99.90
43043;DHT22;28667;50.758;6.096;2023-10-09T08:54:00;17.90;99.90
43043;DHT22;28667;50.758;6.096;2023-10-09T08:56:26;17.90;99.90
43043;DHT22;28667;50.758;6.096;2023-10-09T08:58:56;18.00;99.90
43043;DHT22;28667;50.758;6.096;2023-10-09T09:01:22;18.10;99.90
43043;DHT22;28667;50.758;6.096;2023-10-09T09:03:51;18.20;99.90
43043;DHT22;28667;50.758;6.096;2023-10-09T09:06:20;18.20;99.90
43043;DHT22;28667;50.758;6.096;2023-10-09T09:08:46;18.20;99.90
43043;DHT22;28667;50.758;6.096;2023-10-09T09:11:15;18.30;99.90
43043;DHT22;28667;50.758;6.096;2023-10-09T09:13:44;18.30;99.90
43043;DHT22;28667;50.758;6.096;2023-10-09T09:16:22;18.20;99.90
43043;DHT22;28667;50.758;6.096;2023-10-09T09:18:56;18.30;99.90
43043;DHT22;28667;50.758;6.096;2023-10-09T09:21:48;18.30;99.90
43043;DHT22;28667;50.758;6.096;2023-10-09T09:24:14;18.30;99.90
43043;DHT22;28667;50.758;6.096;2023-10-09T09:26:50;18.40;99.90
43043;DHT22;28667;50.758;6.096;2023-10-09T09:32:10;18.50;99.90
43043;DHT22;28667;50.758;6.096;2023-10-09T09:34:53;18.50;99.90
43043;DHT22;28667;50.758;6.096;2023-10-09T09:37:31;18.60;99.90
43043;DHT22;28667;50.758;6.096;2023-10-09T09:40:05;18.60;99.90
43043;DHT22;28667;50.758;6.096;2023-10-09T09:42:49;18.70;99.90
43043;DHT22;28667;50.758;6.096;2023-10-09T09:45:16;18.80;99.90
43043;DHT22;28667;50.758;6.096;2023-10-09T09:47:45;18.90;99.90
43043;DHT22;28667;50.758;6.096;2023-10-09T09:50:17;18.90;99.90
43043;DHT22;28667;50.758;6.096;2023-10-09T09:52:55;19.00;99.90
43043;DHT22;28667;50.758;6.096;2023-10-09T09:55:25;19.10;99.90
43043;DHT22;28667;50.758;6.096;2023-10-09T09:57:57;19.10;99.90
43043;DHT22;28667;50.758;6.096;2023-10-09T10:00:27;19.30;99.90
43043;DHT22;28667;50.758;6.096;2023-10-09T10:03:31;19.40;99.90
43043;DHT22;28667;50.758;6.096;2023-10-09T10:06:00;19.60;99.90
43043;DHT22;28667;50.758;6.096;2023-10-09T10:08:31;19.70;99.90
43043;DHT22;28667;50.758;6.096;2023-10-09T10:10:59;19.80;99.90
43043;DHT22;28667;50.758;6.096;2023-10-09T10:16:11;20.10;99.90
43043;DHT22;28667;50.758;6.096;2023-10-09T10:18:58;20.30;99.90
43043;DHT22;28667;50.758;6.096;2023-10-09T10:21:37;20.50;99.90
43043;DHT22;28667;50.758;6.096;2023-10-09T10:29:35;20.80;99.90
43043;DHT22;28667;50.758;6.096;2023-10-09T10:32:04;20.80;99.90
43043;DHT22;28667;50.758;6.096;2023-10-09T10:34:52;20.90;99.90
43043;DHT22;28667;50.758;6.096;2023-10-09T10:37:35;21.00;99.90
43043;DHT22;28667;50.758;6.096;2023-10-09T10:40:05;21.10;99.90
43043;DHT22;28667;50.758;6.096;2023-10-09T10:42:50;21.10;99.90
43043;DHT22;28667;50.758;6.096;2023-10-09T10:45:38;21.20;99.90
43043;DHT22;28667;50.758;6.096;2023-10-09T10:48:09;21.40;99.90
43043;DHT22;28667;50.758;6.096;2023-10-09T10:50:58;21.40;99.90
43043;DHT22;28667;50.758;6.096;2023-10-09T10:53:24;21.40;99.90
43043;DHT22;28667;50.758;6.096;2023-10-09T10:55:55;21.50;99.90
43043;DHT22;28667;50.758;6.096;2023-10-09T10:58:51;21.50;99.90
43043;DHT22;28667;50.758;6.096;2023-10-09T11:01:21;21.50;99.90
43043;DHT22;28667;50.758;6.096;2023-10-09T11:03:51;21.50;99.90
43043;DHT22;28667;50.758;6.096;2023-10-09T11:06:31;21.60;99.90
43043;DHT22;28667;50.758;6.096;2023-10-09T11:09:07;21.60;99.90
43043;DHT22;28667;50.758;6.096;2023-10-09T11:11:48;21.70;99.90
43043;DHT22;28667;50.758;6.096;2023-10-09T11:14:14;21.60;99.90
43043;DHT22;28667;50.758;6.096;2023-10-09T11:16:41;21.60;99.90
43043;DHT22;28667;50.758;6.096;2023-10-09T11:19:14;21.60;99.90
43043;DHT22;28667;50.758;6.096;2023-10-09T11:21:53;21.50;99.90
43043;DHT22;28667;50.758;6.096;2023-10-09T11:24:32;21.50;99.90
43043;DHT22;28667;50.758;6.096;2023-10-09T11:27:03;21.50;99.90
43043;DHT22;28667;50.758;6.096;2023-10-09T11:29:33;21.50;99.90
43043;DHT22;28667;50.758;6.096;2023-10-09T11:32:13;21.50;99.90
43043;DHT22;28667;50.758;6.096;2023-10-09T11:34:49;21.50;99.90
43043;DHT22;28667;50.758;6.096;2023-10-09T11:37:20;21.50;99.90
43043;DHT22;28667;50.758;6.096;2023-10-09T11:40:04;21.60;99.90
43043;DHT22;28667;50.758;6.096;2023-10-09T11:42:49;21.60;99.90
43043;DHT22;28667;50.758;6.096;2023-10-09T11:45:21;21.70;99.90
43043;DHT22;28667;50.758;6.096;2023-10-09T11:47:54;21.70;99.70
43043;DHT22;28667;50.758;6.096;2023-10-09T11:53:11;21.70;99.40
43043;DHT22;28667;50.758;6.096;2023-10-09T11:55:57;21.80;99.60
43043;DHT22;28667;50.758;6.096;2023-10-09T11:58:24;21.80;99.30
43043;DHT22;28667;50.758;6.096;2023-10-09T12:00:56;21.90;98.90
43043;DHT22;28667;50.758;6.096;2023-10-09T12:03:28;21.90;99.00
43043;DHT22;28667;50.758;6.096;2023-10-09T12:06:01;21.80;98.80
43043;DHT22;28667;50.758;6.096;2023-10-09T12:08:34;21.90;99.00
43043;DHT22;28667;50.758;6.096;2023-10-09T12:11:03;21.90;98.60
43043;DHT22;28667;50.758;6.096;2023-10-09T12:13:29;21.90;98.80
43043;DHT22;28667;50.758;6.096;2023-10-09T12:15:55;22.00;98.90
43043;DHT22;28667;50.758;6.096;2023-10-09T12:18:23;22.00;98.90
43043;DHT22;28667;50.758;6.096;2023-10-09T12:20:50;22.10;98.90
43043;DHT22;28667;50.758;6.096;2023-10-09T12:23:17;22.10;98.50
43043;DHT22;28667;50.758;6.096;2023-10-09T12:25:43;22.10;98.60
43043;DHT22;28667;50.758;6.096;2023-10-09T12:28:12;22.10;98.90
43043;DHT22;28667;50.758;6.096;2023-10-09T12:30:38;22.20;99.10
43043;DHT22;28667;50.758;6.096;2023-10-09T12:33:08;22.20;99.00
43043;DHT22;28667;50.758;6.096;2023-10-09T12:35:38;22.20;98.70
43043;DHT22;28667;50.758;6.096;2023-10-09T12:38:05;22.20;99.20
43043;DHT22;28667;50.758;6.096;2023-10-09T12:40:36;22.20;99.20
43043;DHT22;28667;50.758;6.096;2023-10-09T12:43:02;22.30;99.30
43043;DHT22;28667;50.758;6.096;2023-10-09T12:45:28;22.30;99.20
43043;DHT22;28667;50.758;6.096;2023-10-09T12:47:58;22.30;99.20
43043;DHT22;28667;50.758;6.096;2023-10-09T12:50:28;22.30;99.00
43043;DHT22;28667;50.758;6.096;2023-10-09T12:52:58;22.30;99.10
43043;DHT22;28667;50.758;6.096;2023-10-09T12:55:39;22.30;99.10
43043;DHT22;28667;50.758;6.096;2023-10-09T12:58:09;22.30;98.70
43043;DHT22;28667;50.758;6.096;2023-10-09T13:00:38;22.30;99.20
43043;DHT22;28667;50.758;6.096;2023-10-09T13:03:13;22.30;98.80
43043;DHT22;28667;50.758;6.096;2023-10-09T13:08:24;22.20;99.10
43043;DHT22;28667;50.758;6.096;2023-10-09T13:10:57;22.20;99.40
43043;DHT22;28667;50.758;6.096;2023-10-09T13:13:30;22.10;99.60
43043;DHT22;28667;50.758;6.096;2023-10-09T13:16:18;22.10;99.20
43043;DHT22;28667;50.758;6.096;2023-10-09T13:18:51;22.10;99.00
43043;DHT22;28667;50.758;6.096;2023-10-09T13:21:22;22.10;99.00
43043;DHT22;28667;50.758;6.096;2023-10-09T13:23:49;22.10;99.10
43043;DHT22;28667;50.758;6.096;2023-10-09T13:26:20;22.10;99.00
43043;DHT22;28667;50.758;6.096;2023-10-09T13:28:52;22.00;98.60
43043;DHT22;28667;50.758;6.096;2023-10-09T13:31:18;22.00;98.90
43043;DHT22;28667;50.758;6.096;2023-10-09T13:33:47;21.90;99.00
43043;DHT22;28667;50.758;6.096;2023-10-09T13:36:14;21.90;98.90
43043;DHT22;28667;50.758;6.096;2023-10-09T13:38:56;21.90;98.40
43043;DHT22;28667;50.758;6.096;2023-10-09T13:41:22;21.90;98.10
43043;DHT22;28667;50.758;6.096;2023-10-09T13:43:55;21.80;97.90
43043;DHT22;28667;50.758;6.096;2023-10-09T13:46:23;21.70;97.90
43043;DHT22;28667;50.758;6.096;2023-10-09T13:48:49;21.70;98.10
43043;DHT22;28667;50.758;6.096;2023-10-09T13:51:18;21.70;98.00
43043;DHT22;28667;50.758;6.096;2023-10-09T13:53:45;21.70;97.90
43043;DHT22;28667;50.758;6.096;2023-10-09T13:56:18;21.70;97.80
43043;DHT22;28667;50.758;6.096;2023-10-09T13:58:51;21.60;97.70
43043;DHT22;28667;50.758;6.096;2023-10-09T14:01:17;21.60;98.00
43043;DHT22;28667;50.758;6.096;2023-10-09T14:03:54;21.60;97.90
43043;DHT22;28667;50.758;6.096;2023-10-09T14:06:20;21.50;98.10
43043;DHT22;28667;50.758;6.096;2023-10-09T14:08:57;21.50;98.40
43043;DHT22;28667;50.758;6.096;2023-10-09T14:11:22;21.50;98.00
43043;DHT22;28667;50.758;6.096;2023-10-09T14:13:51;21.50;98.30
43043;DHT22;28667;50.758;6.096;2023-10-09T14:16:17;21.50;98.40
43043;DHT22;28667;50.758;6.096;2023-10-09T14:18:58;21.50;98.10
43043;DHT22;28667;50.758;6.096;2023-10-09T14:21:29;21.40;98.30
43043;DHT22;28667;50.758;6.096;2023-10-09T14:23:58;21.40;98.40
43043;DHT22;28667;50.758;6.096;2023-10-09T14:26:28;21.40;98.60
43043;DHT22;28667;50.758;6.096;2023-10-09T14:28:55;21.30;98.40
43043;DHT22;28667;50.758;6.096;2023-10-09T14:31:25;21.30;98.30
43043;DHT22;28667;50.758;6.096;2023-10-09T14:33:57;21.30;98.10
43043;DHT22;28667;50.758;6.096;2023-10-09T14:36:24;21.30;98.40
43043;DHT22;28667;50.758;6.096;2023-10-09T14:38:55;21.30;98.50
43043;DHT22;28667;50.758;6.096;2023-10-09T14:41:22;21.20;98.70
43043;DHT22;28667;50.758;6.096;2023-10-09T14:43:51;21.20;98.60
43043;DHT22;28667;50.758;6.096;2023-10-09T14:46:20;21.20;98.40
43043;DHT22;28667;50.758;6.096;2023-10-09T14:48:53;21.20;98.50
43043;DHT22;28667;50.758;6.096;2023-10-09T14:51:23;21.20;98.50
43043;DHT22;28667;50.758;6.096;2023-10-09T14:53:59;21.20;98.10
43043;DHT22;28667;50.758;6.096;2023-10-09T14:56:30;21.20;98.50
43043;DHT22;28667;50.758;6.096;2023-10-09T14:58:58;21.20;99.00
43043;DHT22;28667;50.758;6.096;2023-10-09T15:01:27;21.10;98.60
43043;DHT22;28667;50.758;6.096;2023-10-09T15:03:58;21.10;98.70
43043;DHT22;28667;50.758;6.096;2023-10-09T15:06:25;21.10;99.00
43043;DHT22;28667;50.758;6.096;2023-10-09T15:08:53;21.00;99.00
43043;DHT22;28667;50.758;6.096;2023-10-09T15:11:23;21.00;98.90
43043;DHT22;28667;50.758;6.096;2023-10-09T15:13:52;21.00;99.00
43043;DHT22;28667;50.758;6.096;2023-10-09T15:16:18;21.00;98.90
43043;DHT22;28667;50.758;6.096;2023-10-09T15:18:47;20.90;99.00
43043;DHT22;28667;50.758;6.096;2023-10-09T15:21:21;20.90;99.40
43043;DHT22;28667;50.758;6.096;2023-10-09T15:23:49;20.80;99.20
43043;DHT22;28667;50.758;6.096;2023-10-09T15:26:18;20.80;99.60
43043;DHT22;28667;50.758;6.096;2023-10-09T15:28:43;20.70;99.70
43043;DHT22;28667;50.758;6.096;2023-10-09T15:31:09;20.60;99.90
43043;DHT22;28667;50.758;6.096;2023-10-09T15:33:42;20.60;99.90
43043;DHT22;28667;50.758;6.096;2023-10-09T15:36:15;20.60;99.90
43043;DHT22;28667;50.758;6.096;2023-10-09T15:38:43;20.60;99.90
43043;DHT22;28667;50.758;6.096;2023-10-09T15:41:09;20.60;99.90
43043;DHT22;28667;50.758;6.096;2023-10-09T15:43:35;20.50;99.90
43043;DHT22;28667;50.758;6.096;2023-10-09T15:46:01;20.50;99.90
43043;DHT22;28667;50.758;6.096;2023-10-09T15:48:27;20.40;99.90
43043;DHT22;28667;50.758;6.096;2023-10-09T15:50:53;20.40;99.90
43043;DHT22;28667;50.758;6.096;2023-10-09T15:53:19;20.40;99.90
43043;DHT22;28667;50.758;6.096;2023-10-09T15:55:46;20.40;99.90
43043;DHT22;28667;50.758;6.096;2023-10-09T15:58:12;20.40;99.90
43043;DHT22;28667;50.758;6.096;2023-10-09T16:00:38;20.50;99.90
43043;DHT22;28667;50.758;6.096;2023-10-09T16:03:05;20.50;99.90
43043;DHT22;28667;50.758;6.096;2023-10-09T16:05:35;20.50;99.90
43043;DHT22;28667;50.758;6.096;2023-10-09T16:08:02;20.50;99.90
43043;DHT22;28667;50.758;6.096;2023-10-09T16:10:29;20.50;99.90
43043;DHT22;28667;50.758;6.096;2023-10-09T16:12:57;20.50;99.90
43043;DHT22;28667;50.758;6.096;2023-10-09T16:15:23;20.40;99.90
43043;DHT22;28667;50.758;6.096;2023-10-09T16:17:50;20.30;99.90
43043;DHT22;28667;50.758;6.096;2023-10-09T16:20:32;20.20;99.90
43043;DHT22;28667;50.758;6.096;2023-10-09T16:23:01;20.10;99.90
43043;DHT22;28667;50.758;6.096;2023-10-09T16:25:30;20.10;99.90
43043;DHT22;28667;50.758;6.096;2023-10-09T16:28:02;20.00;99.90
43043;DHT22;28667;50.758;6.096;2023-10-09T16:30:28;20.00;99.90
43043;DHT22;28667;50.758;6.096;2023-10-09T16:32:54;19.90;99.90
43043;DHT22;28667;50.758;6.096;2023-10-09T16:35:20;19.80;99.90
43043;DHT22;28667;50.758;6.096;2023-10-09T16:37:48;19.80;99.90
43043;DHT22;28667;50.758;6.096;2023-10-09T16:40:19;19.60;99.90